TNO5555 MNMG-MMTG
Flight info
| Callsign | TNO5555 |
|---|---|
| Flight time | 1h 22m |
| Altitude | 38000 |
| Route | TAGOM1 POZOL DCT CAT UG436 AUR UA552 GABEN DCT KESLI |
| Aircraft | A20N/M-SDE2E3FGHIRWXY/LB1 |
Departure
| Time | 2026-04-29 15:13 |
|---|---|
| Airport | Augusto C. Sandino (Managua) International Airport (MNMG) |
Arrival
| Time | 2026-04-29 16:36 |
|---|---|
| Airport | Angel Albino Corzo International Airport (MMTG) |
| Time | Latitude | Longitude | Altitude | Speed | Heading |
|---|---|---|---|---|---|
| 2026-04-29 15:06 | 12.14399 | -86.17101 | 211 ft | 0 kts | 5° |
| 2026-04-29 15:09 | 12.14391 | -86.17101 | 211 ft | 3 kts | 5° |
| 2026-04-29 15:10 | 12.14374 | -86.17098 | 207 ft | 3 kts | 299° |
| 2026-04-29 15:10 | 12.14373 | -86.17097 | 207 ft | 3 kts | 288° |
| 2026-04-29 15:10 | 12.14363 | -86.17123 | 203 ft | 3 kts | 236° |
| 2026-04-29 15:10 | 12.14341 | -86.17163 | 203 ft | 9 kts | 253° |
| 2026-04-29 15:11 | 12.14338 | -86.17226 | 202 ft | 13 kts | 275° |
| 2026-04-29 15:11 | 12.14348 | -86.17332 | 203 ft | 19 kts | 277° |
| 2026-04-29 15:11 | 12.14362 | -86.17465 | 205 ft | 18 kts | 274° |
| 2026-04-29 15:11 | 12.14372 | -86.17588 | 200 ft | 17 kts | 274° |
| 2026-04-29 15:12 | 12.14386 | -86.17707 | 200 ft | 16 kts | 279° |
| 2026-04-29 15:12 | 12.14379 | -86.17778 | 200 ft | 14 kts | 247° |
| 2026-04-29 15:12 | 12.14316 | -86.17878 | 210 ft | 11 kts | 239° |
| 2026-04-29 15:12 | 12.14290 | -86.17887 | 211 ft | 2 kts | 108° |
| 2026-04-29 15:13 | 12.14264 | -86.17650 | 201 ft | 71 kts | 97° |
| 2026-04-29 15:13 | 12.14168 | -86.16884 | 209 ft | 143 kts | 98° |
| 2026-04-29 15:13 | 12.14055 | -86.15859 | 797 ft | 157 kts | 94° |
| 2026-04-29 15:13 | 12.13926 | -86.14580 | 984 ft | 204 kts | 94° |
| 2026-04-29 15:14 | 12.13770 | -86.13051 | 1610 ft | 224 kts | 92° |
| 2026-04-29 15:14 | 12.13608 | -86.11432 | 2367 ft | 236 kts | 94° |
| 2026-04-29 15:14 | 12.13427 | -86.09711 | 2963 ft | 247 kts | 94° |
| 2026-04-29 15:14 | 12.12943 | -86.08028 | 3760 ft | 253 kts | 120° |
| 2026-04-29 15:15 | 12.11577 | -86.06865 | 4535 ft | 266 kts | 155° |
| 2026-04-29 15:15 | 12.09716 | -86.06689 | 5304 ft | 279 kts | 189° |
| 2026-04-29 15:15 | 12.07997 | -86.07617 | 6106 ft | 288 kts | 222° |
| 2026-04-29 15:15 | 12.06981 | -86.09350 | 6771 ft | 295 kts | 254° |
| 2026-04-29 15:16 | 12.06735 | -86.11434 | 7517 ft | 297 kts | 270° |
| 2026-04-29 15:16 | 12.06887 | -86.13549 | 8276 ft | 299 kts | 276° |
| 2026-04-29 15:16 | 12.07089 | -86.15677 | 9000 ft | 302 kts | 276° |
| 2026-04-29 15:16 | 12.07363 | -86.17826 | 9703 ft | 307 kts | 278° |
| 2026-04-29 15:17 | 12.07661 | -86.19995 | 10324 ft | 313 kts | 278° |
| 2026-04-29 15:17 | 12.07952 | -86.22260 | 10621 ft | 330 kts | 277° |
| 2026-04-29 15:17 | 12.08236 | -86.24651 | 10862 ft | 348 kts | 277° |
| 2026-04-29 15:17 | 12.08424 | -86.26300 | 11030 ft | 357 kts | 277° |
| 2026-04-29 15:18 | 12.08795 | -86.29665 | 11727 ft | 363 kts | 277° |
| 2026-04-29 15:18 | 12.09076 | -86.32248 | 12181 ft | 369 kts | 277° |
| 2026-04-29 15:18 | 12.09360 | -86.34871 | 12742 ft | 372 kts | 278° |
| 2026-04-29 15:18 | 12.09643 | -86.37512 | 13233 ft | 377 kts | 278° |
| 2026-04-29 15:19 | 12.09935 | -86.40185 | 13768 ft | 380 kts | 278° |
| 2026-04-29 15:19 | 12.10241 | -86.42866 | 14316 ft | 380 kts | 279° |
| 2026-04-29 15:19 | 12.10552 | -86.45564 | 14807 ft | 383 kts | 278° |
| 2026-04-29 15:19 | 12.10859 | -86.48231 | 15361 ft | 383 kts | 277° |
| 2026-04-29 15:20 | 12.11171 | -86.50943 | 15865 ft | 386 kts | 278° |
| 2026-04-29 15:20 | 12.11485 | -86.53680 | 16377 ft | 389 kts | 277° |
| 2026-04-29 15:20 | 12.11801 | -86.56432 | 16869 ft | 391 kts | 278° |
| 2026-04-29 15:20 | 12.12256 | -86.59182 | 17301 ft | 394 kts | 286° |
| 2026-04-29 15:21 | 12.13142 | -86.61832 | 17760 ft | 395 kts | 294° |
| 2026-04-29 15:21 | 12.14303 | -86.64380 | 18246 ft | 396 kts | 298° |
| 2026-04-29 15:21 | 12.15107 | -86.66055 | 18492 ft | 398 kts | 296° |
| 2026-04-29 15:21 | 12.16728 | -86.69435 | 18995 ft | 401 kts | 297° |
| 2026-04-29 15:22 | 12.17966 | -86.71997 | 19392 ft | 403 kts | 297° |
| 2026-04-29 15:22 | 12.19208 | -86.74574 | 19752 ft | 405 kts | 297° |
| 2026-04-29 15:22 | 12.20452 | -86.77165 | 20119 ft | 407 kts | 297° |
| 2026-04-29 15:22 | 12.21702 | -86.79772 | 20511 ft | 409 kts | 297° |
| 2026-04-29 15:23 | 12.22955 | -86.82384 | 20955 ft | 409 kts | 298° |
| 2026-04-29 15:23 | 12.23787 | -86.84117 | 21216 ft | 411 kts | 297° |
| 2026-04-29 15:23 | 12.25471 | -86.87640 | 21724 ft | 414 kts | 297° |
| 2026-04-29 15:23 | 12.26721 | -86.90259 | 22124 ft | 416 kts | 297° |
| 2026-04-29 15:24 | 12.27995 | -86.92928 | 22501 ft | 419 kts | 297° |
| 2026-04-29 15:24 | 12.29277 | -86.95615 | 22882 ft | 422 kts | 297° |
| 2026-04-29 15:24 | 12.30568 | -86.98314 | 23341 ft | 422 kts | 298° |
| 2026-04-29 15:24 | 12.31422 | -87.00101 | 23603 ft | 424 kts | 297° |
| 2026-04-29 15:25 | 12.32718 | -87.02820 | 23963 ft | 426 kts | 297° |
| 2026-04-29 15:25 | 12.34016 | -87.05544 | 24334 ft | 428 kts | 296° |
| 2026-04-29 15:25 | 12.35327 | -87.08298 | 24606 ft | 432 kts | 296° |
| 2026-04-29 15:25 | 12.37070 | -87.11956 | 25123 ft | 433 kts | 296° |
| 2026-04-29 15:26 | 12.38392 | -87.14730 | 25503 ft | 434 kts | 295° |
| 2026-04-29 15:26 | 12.39285 | -87.16605 | 25774 ft | 435 kts | 295° |
| 2026-04-29 15:26 | 12.41047 | -87.20302 | 26200 ft | 438 kts | 295° |
| 2026-04-29 15:26 | 12.41932 | -87.22162 | 26423 ft | 440 kts | 295° |
| 2026-04-29 15:27 | 12.43274 | -87.24981 | 26765 ft | 442 kts | 295° |
| 2026-04-29 15:27 | 12.44619 | -87.27810 | 27098 ft | 443 kts | 295° |
| 2026-04-29 15:27 | 12.45971 | -87.30653 | 27430 ft | 445 kts | 294° |
| 2026-04-29 15:27 | 12.47770 | -87.34436 | 27839 ft | 448 kts | 295° |
| 2026-04-29 15:28 | 12.49138 | -87.37316 | 28079 ft | 452 kts | 295° |
| 2026-04-29 15:28 | 12.50068 | -87.39273 | 28283 ft | 453 kts | 295° |
| 2026-04-29 15:28 | 12.51429 | -87.42138 | 28602 ft | 454 kts | 295° |
| 2026-04-29 15:28 | 12.53280 | -87.46036 | 29024 ft | 456 kts | 294° |
| 2026-04-29 15:29 | 12.54199 | -87.47971 | 29226 ft | 458 kts | 294° |
| 2026-04-29 15:29 | 12.56983 | -87.53838 | 29985 ft | 457 kts | 294° |
| 2026-04-29 15:30 | 12.59745 | -87.59662 | 30749 ft | 453 kts | 293° |
| 2026-04-29 15:30 | 12.61561 | -87.63493 | 31239 ft | 450 kts | 293° |
| 2026-04-29 15:30 | 12.62923 | -87.66368 | 31603 ft | 448 kts | 293° |
| 2026-04-29 15:30 | 12.63824 | -87.68270 | 31850 ft | 447 kts | 293° |
| 2026-04-29 15:31 | 12.65178 | -87.71131 | 32212 ft | 445 kts | 293° |
| 2026-04-29 15:31 | 12.66528 | -87.73984 | 32483 ft | 446 kts | 293° |
| 2026-04-29 15:31 | 12.67880 | -87.76842 | 32778 ft | 446 kts | 293° |
| 2026-04-29 15:31 | 12.69228 | -87.79693 | 33128 ft | 444 kts | 292° |
| 2026-04-29 15:32 | 12.70570 | -87.82529 | 33487 ft | 442 kts | 292° |
| 2026-04-29 15:32 | 12.71906 | -87.85357 | 33835 ft | 440 kts | 292° |
| 2026-04-29 15:32 | 12.73219 | -87.88135 | 34125 ft | 439 kts | 292° |
| 2026-04-29 15:32 | 12.74653 | -87.90895 | 34352 ft | 441 kts | 297° |
| 2026-04-29 15:33 | 12.76240 | -87.93581 | 34567 ft | 441 kts | 297° |
| 2026-04-29 15:33 | 12.77833 | -87.96270 | 34741 ft | 442 kts | 298° |
| 2026-04-29 15:33 | 12.79429 | -87.98967 | 34909 ft | 443 kts | 298° |
| 2026-04-29 15:33 | 12.81539 | -88.02542 | 35227 ft | 442 kts | 298° |
| 2026-04-29 15:34 | 12.83127 | -88.05239 | 35445 ft | 441 kts | 298° |
| 2026-04-29 15:34 | 12.84177 | -88.07023 | 35597 ft | 441 kts | 298° |
| 2026-04-29 15:34 | 12.85759 | -88.09713 | 35804 ft | 441 kts | 298° |
| 2026-04-29 15:34 | 12.87342 | -88.12407 | 35935 ft | 442 kts | 298° |
| 2026-04-29 15:35 | 12.88929 | -88.15109 | 36094 ft | 442 kts | 298° |
| 2026-04-29 15:35 | 12.90513 | -88.17806 | 36305 ft | 442 kts | 298° |
| 2026-04-29 15:35 | 12.92097 | -88.20504 | 36510 ft | 441 kts | 298° |
| 2026-04-29 15:35 | 12.93676 | -88.23196 | 36708 ft | 440 kts | 298° |
| 2026-04-29 15:36 | 12.95252 | -88.25881 | 36911 ft | 440 kts | 298° |
| 2026-04-29 15:36 | 12.96827 | -88.28568 | 37087 ft | 439 kts | 298° |
| 2026-04-29 15:36 | 12.98378 | -88.31213 | 37264 ft | 438 kts | 298° |
| 2026-04-29 15:36 | 12.99947 | -88.33891 | 37440 ft | 438 kts | 298° |
| 2026-04-29 15:37 | 13.01516 | -88.36567 | 37605 ft | 438 kts | 298° |
| 2026-04-29 15:37 | 13.03081 | -88.39240 | 37760 ft | 437 kts | 298° |
| 2026-04-29 15:37 | 13.04646 | -88.41913 | 37907 ft | 437 kts | 298° |
| 2026-04-29 15:38 | 13.07779 | -88.47267 | 37903 ft | 437 kts | 298° |
| 2026-04-29 15:38 | 13.10906 | -88.52613 | 37903 ft | 437 kts | 298° |
| 2026-04-29 15:39 | 13.14012 | -88.57926 | 37908 ft | 438 kts | 299° |
| 2026-04-29 15:39 | 13.17152 | -88.63301 | 37900 ft | 441 kts | 299° |
| 2026-04-29 15:40 | 13.20305 | -88.68702 | 37900 ft | 441 kts | 299° |
| 2026-04-29 15:40 | 13.23459 | -88.74106 | 37887 ft | 441 kts | 299° |
| 2026-04-29 15:41 | 13.26589 | -88.79473 | 37903 ft | 441 kts | 299° |
| 2026-04-29 15:41 | 13.29737 | -88.84874 | 37903 ft | 441 kts | 299° |
| 2026-04-29 15:42 | 13.32892 | -88.90292 | 37906 ft | 442 kts | 300° |
| 2026-04-29 15:42 | 13.36051 | -88.95720 | 37934 ft | 443 kts | 300° |
| 2026-04-29 15:43 | 13.39189 | -89.01115 | 37934 ft | 443 kts | 300° |
| 2026-04-29 15:43 | 13.42354 | -89.06549 | 38001 ft | 443 kts | 301° |
| 2026-04-29 15:44 | 13.45991 | -89.11667 | 38028 ft | 444 kts | 307° |
| 2026-04-29 15:44 | 13.49891 | -89.16595 | 38061 ft | 445 kts | 308° |
| 2026-04-29 15:45 | 13.53795 | -89.21460 | 38067 ft | 444 kts | 308° |
| 2026-04-29 15:45 | 13.57704 | -89.26373 | 38063 ft | 443 kts | 308° |
| 2026-04-29 15:46 | 13.61594 | -89.31293 | 38057 ft | 444 kts | 308° |
| 2026-04-29 15:46 | 13.65481 | -89.36222 | 38063 ft | 443 kts | 308° |
| 2026-04-29 15:47 | 13.69334 | -89.41112 | 38038 ft | 442 kts | 308° |
| 2026-04-29 15:47 | 13.73206 | -89.46025 | 38016 ft | 443 kts | 308° |
| 2026-04-29 15:48 | 13.77082 | -89.50946 | 37999 ft | 443 kts | 308° |
| 2026-04-29 15:48 | 13.80964 | -89.55878 | 38037 ft | 443 kts | 308° |
| 2026-04-29 15:49 | 13.84814 | -89.60770 | 38039 ft | 443 kts | 308° |
| 2026-04-29 15:49 | 13.88680 | -89.65688 | 38037 ft | 441 kts | 309° |
| 2026-04-29 15:50 | 13.92538 | -89.70598 | 37998 ft | 441 kts | 309° |
| 2026-04-29 15:50 | 13.96400 | -89.75515 | 38066 ft | 443 kts | 309° |
| 2026-04-29 15:51 | 14.00240 | -89.80409 | 38064 ft | 442 kts | 309° |
| 2026-04-29 15:51 | 14.04097 | -89.85326 | 38067 ft | 441 kts | 309° |
| 2026-04-29 15:52 | 14.07948 | -89.90237 | 38114 ft | 441 kts | 309° |
| 2026-04-29 15:52 | 14.11803 | -89.95159 | 38115 ft | 442 kts | 309° |
| 2026-04-29 15:53 | 14.15637 | -90.00056 | 38095 ft | 442 kts | 310° |
| 2026-04-29 15:53 | 14.19493 | -90.04983 | 38100 ft | 441 kts | 310° |
| 2026-04-29 15:54 | 14.23346 | -90.09910 | 38139 ft | 441 kts | 310° |
| 2026-04-29 15:54 | 14.27180 | -90.14816 | 38139 ft | 439 kts | 310° |
| 2026-04-29 15:55 | 14.31007 | -90.19714 | 38132 ft | 439 kts | 310° |
| 2026-04-29 15:55 | 14.34810 | -90.24585 | 38132 ft | 439 kts | 310° |
| 2026-04-29 15:56 | 14.38635 | -90.29487 | 38190 ft | 438 kts | 310° |
| 2026-04-29 15:56 | 14.42455 | -90.34388 | 38217 ft | 438 kts | 310° |
| 2026-04-29 15:57 | 14.46277 | -90.39292 | 38229 ft | 439 kts | 310° |
| 2026-04-29 15:57 | 14.50081 | -90.44174 | 38237 ft | 439 kts | 310° |
| 2026-04-29 15:58 | 14.53907 | -90.49093 | 38235 ft | 440 kts | 310° |
| 2026-04-29 15:58 | 14.57262 | -90.54368 | 38238 ft | 442 kts | 296° |
| 2026-04-29 15:59 | 14.59373 | -90.60347 | 38240 ft | 444 kts | 290° |
| 2026-04-29 15:59 | 14.61274 | -90.66376 | 38238 ft | 445 kts | 290° |
| 2026-04-29 16:00 | 14.63176 | -90.72454 | 38226 ft | 445 kts | 290° |
| 2026-04-29 16:00 | 14.65080 | -90.78541 | 38218 ft | 445 kts | 290° |
| 2026-04-29 16:01 | 14.66984 | -90.84635 | 38201 ft | 446 kts | 290° |
| 2026-04-29 16:01 | 14.68877 | -90.90698 | 38183 ft | 446 kts | 290° |
| 2026-04-29 16:02 | 14.70780 | -90.96802 | 38186 ft | 446 kts | 290° |
| 2026-04-29 16:02 | 14.72682 | -91.02904 | 38186 ft | 446 kts | 290° |
| 2026-04-29 16:03 | 14.74582 | -91.09010 | 38182 ft | 446 kts | 290° |
| 2026-04-29 16:03 | 14.76481 | -91.15118 | 38182 ft | 447 kts | 290° |
| 2026-04-29 16:04 | 14.78369 | -91.21195 | 38182 ft | 448 kts | 290° |
| 2026-04-29 16:04 | 14.80271 | -91.27325 | 38175 ft | 448 kts | 290° |
| 2026-04-29 16:05 | 14.82172 | -91.33459 | 38178 ft | 448 kts | 290° |
| 2026-04-29 16:05 | 14.84072 | -91.39594 | 38157 ft | 448 kts | 290° |
| 2026-04-29 16:06 | 14.85958 | -91.45691 | 38156 ft | 448 kts | 290° |
| 2026-04-29 16:06 | 14.87854 | -91.51826 | 38156 ft | 448 kts | 290° |
| 2026-04-29 16:07 | 14.89749 | -91.57965 | 38126 ft | 448 kts | 290° |
| 2026-04-29 16:07 | 14.91642 | -91.64106 | 38135 ft | 449 kts | 290° |
| 2026-04-29 16:08 | 14.93535 | -91.70251 | 38142 ft | 449 kts | 290° |
| 2026-04-29 16:08 | 14.95415 | -91.76361 | 38141 ft | 449 kts | 290° |
| 2026-04-29 16:09 | 14.97306 | -91.82511 | 38143 ft | 449 kts | 290° |
| 2026-04-29 16:09 | 14.99196 | -91.88661 | 38116 ft | 449 kts | 290° |
| 2026-04-29 16:10 | 15.01084 | -91.94819 | 38105 ft | 449 kts | 290° |
| 2026-04-29 16:10 | 15.02971 | -92.00980 | 38076 ft | 449 kts | 290° |
| 2026-04-29 16:11 | 15.04845 | -92.07100 | 38073 ft | 449 kts | 290° |
| 2026-04-29 16:11 | 15.06727 | -92.13257 | 38102 ft | 449 kts | 290° |
| 2026-04-29 16:12 | 15.08610 | -92.19419 | 38054 ft | 449 kts | 290° |
| 2026-04-29 16:12 | 15.10488 | -92.25574 | 38055 ft | 449 kts | 290° |
| 2026-04-29 16:13 | 15.12354 | -92.31695 | 38018 ft | 449 kts | 290° |
| 2026-04-29 16:13 | 15.14236 | -92.37874 | 38031 ft | 450 kts | 290° |
| 2026-04-29 16:14 | 15.16120 | -92.43989 | 38019 ft | 450 kts | 293° |
| 2026-04-29 16:14 | 15.19107 | -92.49573 | 37990 ft | 442 kts | 313° |
| 2026-04-29 16:15 | 15.23723 | -92.53563 | 38007 ft | 434 kts | 334° |
| 2026-04-29 16:15 | 15.29280 | -92.55915 | 38006 ft | 432 kts | 343° |
| 2026-04-29 16:15 | 15.32119 | -92.56944 | 37766 ft | 432 kts | 343° |
| 2026-04-29 16:16 | 15.34952 | -92.57969 | 37520 ft | 431 kts | 343° |
| 2026-04-29 16:16 | 15.37779 | -92.58998 | 37224 ft | 431 kts | 343° |
| 2026-04-29 16:16 | 15.40609 | -92.60031 | 36431 ft | 435 kts | 343° |
| 2026-04-29 16:16 | 15.43493 | -92.61087 | 35623 ft | 442 kts | 343° |
| 2026-04-29 16:17 | 15.46361 | -92.62139 | 34948 ft | 445 kts | 343° |
| 2026-04-29 16:17 | 15.49284 | -92.63213 | 34321 ft | 446 kts | 343° |
| 2026-04-29 16:17 | 15.52219 | -92.64292 | 33592 ft | 449 kts | 344° |
| 2026-04-29 16:17 | 15.55172 | -92.65378 | 32855 ft | 451 kts | 344° |
| 2026-04-29 16:18 | 15.58132 | -92.66468 | 32143 ft | 453 kts | 344° |
| 2026-04-29 16:18 | 15.61110 | -92.67564 | 31411 ft | 455 kts | 345° |
| 2026-04-29 16:18 | 15.64089 | -92.68655 | 30779 ft | 454 kts | 344° |
| 2026-04-29 16:18 | 15.67059 | -92.69747 | 30253 ft | 451 kts | 344° |
| 2026-04-29 16:19 | 15.70011 | -92.70835 | 29636 ft | 448 kts | 345° |
| 2026-04-29 16:19 | 15.72936 | -92.71912 | 29081 ft | 445 kts | 345° |
| 2026-04-29 16:19 | 15.75803 | -92.72968 | 28543 ft | 441 kts | 345° |
| 2026-04-29 16:19 | 15.78675 | -92.74026 | 27984 ft | 437 kts | 344° |
| 2026-04-29 16:20 | 15.81540 | -92.75082 | 27424 ft | 434 kts | 344° |
| 2026-04-29 16:20 | 15.84375 | -92.76127 | 26880 ft | 431 kts | 344° |
| 2026-04-29 16:20 | 15.87191 | -92.77164 | 26332 ft | 429 kts | 344° |
| 2026-04-29 16:20 | 15.89996 | -92.78198 | 25791 ft | 426 kts | 344° |
| 2026-04-29 16:21 | 15.92782 | -92.79225 | 25239 ft | 424 kts | 344° |
| 2026-04-29 16:21 | 15.95552 | -92.80245 | 24684 ft | 422 kts | 344° |
| 2026-04-29 16:21 | 15.98279 | -92.81248 | 24119 ft | 421 kts | 344° |
| 2026-04-29 16:21 | 16.01038 | -92.82263 | 23550 ft | 420 kts | 344° |
| 2026-04-29 16:22 | 16.03774 | -92.83271 | 23003 ft | 416 kts | 344° |
| 2026-04-29 16:22 | 16.06489 | -92.84271 | 22391 ft | 413 kts | 344° |
| 2026-04-29 16:22 | 16.09183 | -92.85264 | 21822 ft | 407 kts | 344° |
| 2026-04-29 16:22 | 16.11812 | -92.86236 | 21282 ft | 395 kts | 344° |
| 2026-04-29 16:23 | 16.14380 | -92.87183 | 20384 ft | 392 kts | 344° |
| 2026-04-29 16:23 | 16.16986 | -92.88139 | 19104 ft | 401 kts | 345° |
| 2026-04-29 16:23 | 16.19652 | -92.89112 | 17697 ft | 411 kts | 344° |
| 2026-04-29 16:23 | 16.22341 | -92.90109 | 16194 ft | 420 kts | 343° |
| 2026-04-29 16:24 | 16.25101 | -92.91138 | 14953 ft | 422 kts | 343° |
| 2026-04-29 16:24 | 16.27848 | -92.92161 | 14093 ft | 414 kts | 343° |
| 2026-04-29 16:24 | 16.30481 | -92.93146 | 13856 ft | 389 kts | 343° |
| 2026-04-29 16:24 | 16.32739 | -92.93990 | 13316 ft | 377 kts | 343° |
| 2026-04-29 16:25 | 16.35209 | -92.94905 | 12111 ft | 380 kts | 343° |
| 2026-04-29 16:25 | 16.37725 | -92.95834 | 10763 ft | 388 kts | 342° |
| 2026-04-29 16:25 | 16.40268 | -92.96775 | 9991 ft | 382 kts | 342° |
| 2026-04-29 16:25 | 16.42688 | -92.97674 | 9754 ft | 357 kts | 342° |
| 2026-04-29 16:26 | 16.44915 | -92.98503 | 9524 ft | 334 kts | 342° |
| 2026-04-29 16:26 | 16.47035 | -92.99291 | 9295 ft | 314 kts | 342° |
| 2026-04-29 16:26 | 16.49035 | -93.00034 | 9057 ft | 297 kts | 342° |
| 2026-04-29 16:26 | 16.50932 | -93.00738 | 8808 ft | 282 kts | 342° |
| 2026-04-29 16:27 | 16.52746 | -93.01411 | 8420 ft | 275 kts | 341° |
| 2026-04-29 16:27 | 16.54568 | -93.02085 | 7831 ft | 276 kts | 341° |
| 2026-04-29 16:27 | 16.56336 | -93.02755 | 7580 ft | 264 kts | 339° |
| 2026-04-29 16:27 | 16.57856 | -93.03526 | 7367 ft | 254 kts | 332° |
| 2026-04-29 16:28 | 16.59349 | -93.04423 | 6943 ft | 252 kts | 330° |
| 2026-04-29 16:28 | 16.60888 | -93.05381 | 6210 ft | 264 kts | 329° |
| 2026-04-29 16:28 | 16.62470 | -93.06371 | 5703 ft | 264 kts | 329° |
| 2026-04-29 16:28 | 16.64009 | -93.07335 | 5486 ft | 251 kts | 329° |
| 2026-04-29 16:29 | 16.65463 | -93.08244 | 5503 ft | 236 kts | 329° |
| 2026-04-29 16:29 | 16.66814 | -93.09089 | 5506 ft | 220 kts | 329° |
| 2026-04-29 16:29 | 16.68116 | -93.09902 | 5475 ft | 218 kts | 329° |
| 2026-04-29 16:29 | 16.69418 | -93.10729 | 5094 ft | 220 kts | 325° |
| 2026-04-29 16:30 | 16.70498 | -93.11806 | 4728 ft | 217 kts | 304° |
| 2026-04-29 16:30 | 16.71056 | -93.13234 | 4427 ft | 213 kts | 275° |
| 2026-04-29 16:30 | 16.70831 | -93.14721 | 4246 ft | 204 kts | 243° |
| 2026-04-29 16:30 | 16.69933 | -93.15769 | 4067 ft | 187 kts | 210° |
| 2026-04-29 16:31 | 16.68772 | -93.16154 | 3880 ft | 168 kts | 181° |
| 2026-04-29 16:31 | 16.67653 | -93.15962 | 3729 ft | 163 kts | 156° |
| 2026-04-29 16:31 | 16.66717 | -93.15316 | 3726 ft | 163 kts | 134° |
| 2026-04-29 16:31 | 16.66094 | -93.14394 | 3805 ft | 150 kts | 115° |
| 2026-04-29 16:32 | 16.65819 | -93.13378 | 3850 ft | 147 kts | 96° |
| 2026-04-29 16:32 | 16.65876 | -93.12306 | 3866 ft | 147 kts | 77° |
| 2026-04-29 16:32 | 16.66092 | -93.11273 | 3878 ft | 148 kts | 78° |
| 2026-04-29 16:32 | 16.66200 | -93.10212 | 3876 ft | 148 kts | 93° |
| 2026-04-29 16:33 | 16.65422 | -93.08293 | 3678 ft | 146 kts | 134° |
| 2026-04-29 16:33 | 16.64611 | -93.07654 | 3451 ft | 149 kts | 147° |
| 2026-04-29 16:33 | 16.63690 | -93.07085 | 3191 ft | 154 kts | 149° |
| 2026-04-29 16:34 | 16.62773 | -93.06534 | 2911 ft | 155 kts | 148° |
| 2026-04-29 16:34 | 16.61864 | -93.05982 | 2701 ft | 148 kts | 148° |
| 2026-04-29 16:34 | 16.60991 | -93.05449 | 2514 ft | 144 kts | 148° |
| 2026-04-29 16:34 | 16.60133 | -93.04920 | 2285 ft | 143 kts | 148° |
| 2026-04-29 16:35 | 16.59283 | -93.04393 | 2046 ft | 142 kts | 159° |
| 2026-04-29 16:35 | 16.58405 | -93.03925 | 1796 ft | 142 kts | 162° |
| 2026-04-29 16:35 | 16.57526 | -93.03429 | 1653 ft | 146 kts | 160° |
| 2026-04-29 16:35 | 16.56682 | -93.02918 | 1525 ft | 131 kts | 147° |
| 2026-04-29 16:36 | 16.56057 | -93.02533 | 1514 ft | 65 kts | 151° |
| 2026-04-29 16:36 | 16.55803 | -93.02375 | 1516 ft | 46 kts | 148° |
| 2026-04-29 16:36 | 16.55527 | -93.02198 | 1517 ft | 46 kts | 146° |
| 2026-04-29 16:36 | 16.55316 | -93.02063 | 1516 ft | 30 kts | 148° |
| 2026-04-29 16:37 | 16.55266 | -93.01948 | 1515 ft | 17 kts | 68° |
| 2026-04-29 16:37 | 16.55339 | -93.01879 | 1516 ft | 12 kts | 352° |
| 2026-04-29 16:37 | 16.55436 | -93.01933 | 1517 ft | 24 kts | 328° |
| 2026-04-29 16:37 | 16.55540 | -93.02002 | 1517 ft | 27 kts | 328° |
| 2026-04-29 16:38 | 16.55749 | -93.02132 | 1517 ft | 26 kts | 329° |
| 2026-04-29 16:38 | 16.55871 | -93.02125 | 1517 ft | 16 kts | 46° |
| 2026-04-29 16:38 | 16.55928 | -93.02035 | 1517 ft | 14 kts | 45° |
| 2026-04-29 16:38 | 16.55990 | -93.02013 | 1518 ft | 0 kts | 1° |